createdAt,value
2023-02-18T00:00:28.603Z,12.65
2023-02-18T00:02:56.099Z,11.95
2023-02-18T00:05:23.197Z,13.15
2023-02-18T00:07:50.052Z,12.70
2023-02-18T00:10:16.893Z,12.43
2023-02-18T00:12:43.681Z,9.85
2023-02-18T00:15:10.609Z,12.50
2023-02-18T00:17:37.929Z,10.63
2023-02-18T00:20:06.921Z,10.95
2023-02-18T00:22:33.524Z,11.02
2023-02-18T00:25:00.118Z,11.85
2023-02-18T00:27:26.701Z,8.38
2023-02-18T00:29:53.518Z,9.55
2023-02-18T00:32:20.113Z,8.30
2023-02-18T00:34:46.762Z,9.30
2023-02-18T00:37:13.330Z,7.55
2023-02-18T00:39:39.935Z,7.68
2023-02-18T00:42:06.688Z,13.65
2023-02-18T00:44:33.304Z,8.02
2023-02-18T00:46:59.880Z,11.00
2023-02-18T00:49:26.672Z,12.70
2023-02-18T00:51:53.223Z,8.32
2023-02-18T00:54:19.852Z,13.63
2023-02-18T00:56:46.471Z,7.93
2023-02-18T00:59:13.100Z,13.77
2023-02-18T01:01:39.750Z,9.65
2023-02-18T01:04:06.387Z,7.30
2023-02-18T01:06:33.377Z,8.35
2023-02-18T01:08:59.888Z,6.95
2023-02-18T01:11:26.571Z,5.78
2023-02-18T01:13:53.323Z,5.63
2023-02-18T01:16:20.247Z,9.15
2023-02-18T01:18:46.851Z,5.70
2023-02-18T01:21:14.001Z,8.00
2023-02-18T01:23:41.768Z,8.27
2023-02-18T01:26:10.051Z,6.22
2023-02-18T01:28:36.948Z,6.15
2023-02-18T01:31:16.099Z,8.88
2023-02-18T01:33:43.002Z,14.52
2023-02-18T01:36:11.462Z,6.97
2023-02-18T01:38:38.498Z,5.85
2023-02-18T01:41:05.240Z,6.72
2023-02-18T01:43:32.773Z,6.85
2023-02-18T01:46:03.281Z,5.95
2023-02-18T01:48:38.053Z,11.05
2023-02-18T01:51:13.678Z,6.43
2023-02-18T01:53:50.258Z,3.85
2023-02-18T01:56:27.949Z,3.60
2023-02-18T01:58:56.952Z,4.65
2023-02-18T02:01:25.620Z,3.97
2023-02-18T02:03:52.663Z,4.68
2023-02-18T02:06:22.051Z,3.53
2023-02-18T02:08:51.212Z,6.55
2023-02-18T02:11:45.592Z,7.72
2023-02-18T02:14:27.263Z,4.00
2023-02-18T02:17:02.614Z,3.25
2023-02-18T02:20:08.386Z,2.55
2023-02-18T02:22:53.046Z,5.90
2023-02-18T02:25:53.244Z,4.50
2023-02-18T02:28:47.816Z,3.38
2023-02-18T02:31:23.384Z,4.13
2023-02-18T02:34:17.971Z,3.08
2023-02-18T02:37:09.705Z,3.53
2023-02-18T02:39:56.730Z,3.10
2023-02-18T02:43:00.095Z,2.33
2023-02-18T02:45:45.743Z,3.35
2023-02-18T02:48:31.046Z,4.22
2023-02-18T02:53:35.968Z,2.45
2023-02-18T02:56:02.717Z,3.92
2023-02-18T02:58:29.564Z,3.95
2023-02-18T03:01:01.920Z,5.20
2023-02-18T03:03:43.522Z,4.35
2023-02-18T03:06:19.169Z,5.93
2023-02-18T03:09:16.673Z,4.10
2023-02-18T03:12:08.654Z,4.93
2023-02-18T03:14:46.652Z,5.80
2023-02-18T03:17:31.469Z,5.97
2023-02-18T03:20:19.109Z,6.00
2023-02-18T03:22:50.475Z,6.03
2023-02-18T03:25:19.097Z,5.65
2023-02-18T03:27:53.700Z,6.45
2023-02-18T03:30:42.995Z,6.85
2023-02-18T03:33:14.321Z,4.68
2023-02-18T03:35:43.844Z,5.57
2023-02-18T03:38:16.955Z,10.52
2023-02-18T03:40:44.066Z,9.05
2023-02-18T03:43:10.602Z,5.65
2023-02-18T03:45:37.181Z,6.07
2023-02-18T03:48:04.133Z,8.48
2023-02-18T03:50:30.657Z,7.13
2023-02-18T03:52:57.202Z,6.53
2023-02-18T03:55:23.877Z,5.60
2023-02-18T03:57:50.576Z,6.22
2023-02-18T04:00:17.794Z,5.20
2023-02-18T04:02:44.511Z,5.07
2023-02-18T04:05:11.144Z,5.35
2023-02-18T04:07:37.881Z,6.30
2023-02-18T04:10:06.001Z,7.05
2023-02-18T04:12:32.992Z,7.97
2023-02-18T04:15:00.025Z,6.82
2023-02-18T04:17:26.706Z,6.93
2023-02-18T04:19:53.242Z,6.30
2023-02-18T04:22:19.818Z,7.05
2023-02-18T04:24:46.342Z,7.25
2023-02-18T04:27:12.890Z,5.93
2023-02-18T04:29:39.620Z,7.03
2023-02-18T04:32:06.161Z,5.40
2023-02-18T04:34:32.848Z,6.18
2023-02-18T04:36:59.485Z,5.75
2023-02-18T04:39:26.123Z,5.32
2023-02-18T04:41:52.932Z,6.35
2023-02-18T04:44:19.464Z,5.43
2023-02-18T04:46:45.984Z,5.50
2023-02-18T04:49:12.526Z,6.63
2023-02-18T04:51:41.677Z,6.13
2023-02-18T04:54:08.265Z,7.50
2023-02-18T04:56:34.840Z,6.30
2023-02-18T04:59:01.423Z,8.98
2023-02-18T05:01:28.003Z,4.95
2023-02-18T05:03:54.552Z,6.18
2023-02-18T05:06:21.290Z,7.15
2023-02-18T05:08:47.792Z,4.18
2023-02-18T05:11:14.425Z,6.05
2023-02-18T05:13:41.041Z,3.08
2023-02-18T05:16:07.984Z,4.70
2023-02-18T05:18:34.677Z,3.35
2023-02-18T05:21:01.214Z,3.50
2023-02-18T05:23:27.747Z,4.45
2023-02-18T05:25:55.557Z,4.22
2023-02-18T05:28:22.471Z,4.22
2023-02-18T05:30:49.137Z,4.00
2023-02-18T05:33:15.715Z,4.53
2023-02-18T05:35:42.501Z,3.55
2023-02-18T05:38:10.035Z,6.03
2023-02-18T05:40:36.554Z,4.95
2023-02-18T05:43:03.189Z,4.60
2023-02-18T05:45:29.747Z,5.28
2023-02-18T05:47:56.286Z,5.18
2023-02-18T05:50:23.024Z,3.13
2023-02-18T05:52:49.718Z,5.30
2023-02-18T05:55:16.403Z,4.95
2023-02-18T05:57:42.949Z,6.35
2023-02-18T06:00:10.346Z,5.28
2023-02-18T06:02:38.023Z,4.68
2023-02-18T06:05:06.022Z,4.55
2023-02-18T06:07:32.606Z,3.35
2023-02-18T06:09:59.209Z,3.30
2023-02-18T06:12:25.930Z,4.22
2023-02-18T06:14:52.585Z,5.40
2023-02-18T06:17:19.200Z,5.72
2023-02-18T06:19:46.313Z,4.82
2023-02-18T06:22:12.964Z,5.30
2023-02-18T06:24:39.577Z,6.50
2023-02-18T06:27:06.486Z,4.78
2023-02-18T06:29:33.278Z,6.15
2023-02-18T06:32:00.248Z,5.97
2023-02-18T06:34:27.328Z,4.50
2023-02-18T06:36:53.924Z,6.57
2023-02-18T06:39:20.535Z,5.15
2023-02-18T06:41:47.119Z,6.55
2023-02-18T06:44:15.470Z,5.13
2023-02-18T06:46:42.051Z,4.63
2023-02-18T06:49:08.793Z,7.40
2023-02-18T06:51:35.522Z,5.68
2023-02-18T06:54:02.129Z,5.40
2023-02-18T06:56:30.871Z,7.15
2023-02-18T06:58:57.648Z,5.22
2023-02-18T07:01:24.279Z,5.05
2023-02-18T07:03:50.880Z,5.25
2023-02-18T07:06:17.454Z,6.40
2023-02-18T07:08:47.031Z,4.93
2023-02-18T07:11:13.704Z,4.88
2023-02-18T07:13:40.227Z,6.70
2023-02-18T07:16:07.625Z,5.32
2023-02-18T07:18:34.386Z,4.43
2023-02-18T07:21:01.128Z,4.50
2023-02-18T07:23:27.659Z,6.85
2023-02-18T07:26:10.532Z,6.65
2023-02-18T07:28:37.544Z,4.15
2023-02-18T07:31:05.234Z,4.80
2023-02-18T07:33:32.432Z,5.32
2023-02-18T07:36:00.836Z,5.63
2023-02-18T07:38:28.687Z,3.30
2023-02-18T07:40:56.322Z,5.28
2023-02-18T07:43:22.909Z,8.80
2023-02-18T07:45:49.523Z,4.38
2023-02-18T07:48:17.060Z,4.60
2023-02-18T07:50:45.389Z,5.15
2023-02-18T07:53:13.693Z,5.88
2023-02-18T07:55:49.281Z,5.68
2023-02-18T07:58:20.840Z,7.63
2023-02-18T08:00:48.337Z,6.68
2023-02-18T08:03:17.099Z,6.05
2023-02-18T08:05:44.504Z,5.35
2023-02-18T08:08:16.868Z,5.68
2023-02-18T08:10:43.914Z,5.50
2023-02-18T08:13:10.769Z,3.90
2023-02-18T08:15:41.163Z,5.20
2023-02-18T08:18:14.548Z,3.70
2023-02-18T08:20:41.118Z,5.13
2023-02-18T08:23:07.721Z,4.95
2023-02-18T08:25:34.377Z,5.20
2023-02-18T08:28:00.927Z,5.32
2023-02-18T08:30:27.720Z,3.60
2023-02-18T08:32:54.439Z,5.65
2023-02-18T08:35:21.677Z,6.60
2023-02-18T08:37:52.931Z,6.18
2023-02-18T08:40:21.855Z,4.13
2023-02-18T08:42:48.508Z,5.57
2023-02-18T08:45:21.184Z,4.72
2023-02-18T08:48:13.752Z,2.85
2023-02-18T08:50:35.141Z,2.72
2023-02-18T08:53:03.746Z,3.80
2023-02-18T08:55:31.638Z,3.22
2023-02-18T08:58:00.304Z,2.33
2023-02-18T09:00:27.413Z,6.30
2023-02-18T09:02:56.774Z,4.22
2023-02-18T09:05:23.670Z,6.25
2023-02-18T09:07:50.523Z,6.03
2023-02-18T09:10:17.286Z,5.18
2023-02-18T09:12:44.020Z,4.97
2023-02-18T09:15:10.654Z,4.10
2023-02-18T09:17:37.385Z,4.40
2023-02-18T09:20:05.097Z,4.18
2023-02-18T09:22:32.832Z,4.22
2023-02-18T09:24:59.530Z,4.40
2023-02-18T09:27:26.388Z,4.75
2023-02-18T09:29:52.974Z,4.45
2023-02-18T09:32:32.542Z,4.55
2023-02-18T09:35:00.481Z,4.07
2023-02-18T09:37:27.095Z,4.40
2023-02-18T09:39:53.797Z,5.45
2023-02-18T09:42:28.132Z,6.03
2023-02-18T09:44:57.957Z,6.88
2023-02-18T09:47:38.006Z,5.68
2023-02-18T09:50:27.223Z,6.50
2023-02-18T09:52:54.322Z,5.95
2023-02-18T09:55:25.773Z,6.13
2023-02-18T09:57:55.171Z,8.32
2023-02-18T10:00:27.334Z,6.00
2023-02-18T10:02:57.577Z,6.50
2023-02-18T10:05:27.594Z,6.82
2023-02-18T10:08:00.018Z,6.70
2023-02-18T10:10:40.544Z,6.78
2023-02-18T10:13:22.944Z,6.97
2023-02-18T10:15:51.270Z,5.75
2023-02-18T10:18:42.324Z,5.03
2023-02-18T10:21:14.249Z,9.23
2023-02-18T10:23:57.845Z,6.18
2023-02-18T10:26:24.719Z,5.47
2023-02-18T10:28:52.552Z,5.80
2023-02-18T10:31:28.770Z,8.10
2023-02-18T10:34:16.983Z,9.07
2023-02-18T10:36:52.940Z,6.63
2023-02-18T10:39:57.054Z,5.38
2023-02-18T10:42:34.660Z,7.50
2023-02-18T10:45:09.897Z,5.50
2023-02-18T10:47:57.584Z,6.78
2023-02-18T10:50:36.258Z,8.63
2023-02-18T10:53:30.349Z,7.10
2023-02-18T10:55:59.106Z,7.65
2023-02-18T10:58:30.460Z,5.82
2023-02-18T11:00:57.863Z,5.88
2023-02-18T11:03:41.676Z,6.53
2023-02-18T12:00:23.090Z,4.30
2023-02-18T12:02:52.079Z,3.80
2023-02-18T12:05:27.329Z,5.60
2023-02-18T12:08:09.509Z,4.47
2023-02-18T12:10:50.420Z,2.63
2023-02-18T12:13:35.780Z,3.08
2023-02-18T12:16:21.735Z,2.70
2023-02-18T12:19:00.324Z,2.20
2023-02-18T12:21:50.557Z,9.98
2023-02-18T12:24:29.094Z,6.30
2023-02-18T12:27:18.794Z,4.30
2023-02-18T12:30:06.780Z,4.40
2023-02-18T12:32:56.572Z,3.67
2023-02-18T12:35:32.135Z,2.97
2023-02-18T12:38:35.933Z,4.45
2023-02-18T12:41:18.437Z,1.90
2023-02-18T12:43:56.718Z,1.80
2023-02-18T12:46:52.631Z,6.65
2023-02-18T12:49:32.344Z,3.10
2023-02-18T12:52:08.068Z,3.42
2023-02-18T12:55:07.245Z,2.40
2023-02-18T12:57:46.749Z,2.65
2023-02-18T13:00:44.123Z,2.65
2023-02-18T13:03:22.956Z,4.25
2023-02-18T13:06:08.558Z,3.33
2023-02-18T13:08:58.191Z,5.47
2023-02-18T13:11:33.882Z,2.92
2023-02-18T13:14:12.066Z,2.40
2023-02-18T13:16:41.584Z,1.80
2023-02-18T13:19:21.590Z,3.20
2023-02-18T13:21:50.953Z,3.40
2023-02-18T13:24:30.818Z,3.13
2023-02-18T13:27:05.299Z,3.92
2023-02-18T13:29:39.785Z,2.90
2023-02-18T13:32:12.107Z,3.38
2023-02-18T13:34:48.707Z,3.25
2023-02-18T13:37:36.797Z,3.25
2023-02-18T13:40:04.091Z,5.10
2023-02-18T13:42:30.574Z,4.13
2023-02-18T13:44:57.178Z,2.40
2023-02-18T13:47:47.017Z,3.40
2023-02-18T13:50:25.833Z,2.60
2023-02-18T13:53:04.704Z,2.13
2023-02-18T13:55:42.744Z,4.53
2023-02-18T13:58:20.491Z,2.72
2023-02-18T14:00:56.653Z,2.72
2023-02-18T14:03:36.313Z,5.60
2023-02-18T14:06:14.150Z,5.32
2023-02-18T14:08:40.975Z,4.32
2023-02-18T14:11:13.818Z,2.15
2023-02-18T14:13:46.111Z,3.08
2023-02-18T14:16:13.238Z,3.03
2023-02-18T14:18:39.760Z,3.70
2023-02-18T14:21:22.514Z,3.00
2023-02-18T14:23:51.768Z,4.70
2023-02-18T14:26:32.887Z,5.65
2023-02-18T14:29:28.251Z,3.10
2023-02-18T14:32:01.371Z,3.65
2023-02-18T14:34:52.591Z,2.97
2023-02-18T14:37:42.306Z,2.90
2023-02-18T14:40:51.468Z,3.97
2023-02-18T14:43:47.318Z,3.75
2023-02-18T14:46:47.388Z,4.30
2023-02-18T14:49:25.886Z,4.22
2023-02-18T14:51:53.226Z,4.18
2023-02-18T14:54:21.614Z,4.00
2023-02-18T14:57:10.252Z,5.03
2023-02-18T14:59:42.835Z,3.75
2023-02-18T15:02:18.822Z,4.07
2023-02-18T15:04:46.116Z,4.15
2023-02-18T15:07:13.615Z,5.05
2023-02-18T15:09:53.368Z,3.28
2023-02-18T15:12:25.650Z,3.40
2023-02-18T15:14:53.861Z,3.92
2023-02-18T15:17:27.416Z,4.75
2023-02-18T15:19:57.186Z,9.30
2023-02-18T15:22:31.501Z,11.77
2023-02-18T15:24:58.253Z,5.22
2023-02-18T15:27:32.273Z,4.78
2023-02-18T15:30:18.998Z,5.20
2023-02-18T15:32:50.399Z,5.75
2023-02-18T15:35:19.003Z,4.10
2023-02-18T15:37:47.597Z,7.57
2023-02-18T15:40:18.110Z,4.15
2023-02-18T15:42:51.521Z,3.78
2023-02-18T15:45:31.748Z,3.10
2023-02-18T15:47:59.647Z,5.13
2023-02-18T15:50:33.054Z,3.05
2023-02-18T15:53:05.272Z,2.40
2023-02-18T15:55:36.701Z,4.10
2023-02-18T15:58:13.171Z,4.88
2023-02-18T16:00:47.010Z,2.83
2023-02-18T16:03:19.923Z,3.28
2023-02-18T16:05:46.468Z,3.67
2023-02-18T16:08:23.766Z,4.07
2023-02-18T16:10:56.595Z,4.95
2023-02-18T16:13:26.381Z,4.30
2023-02-18T16:15:53.802Z,3.92
2023-02-18T16:18:22.452Z,4.57
2023-02-18T16:21:06.119Z,3.78
2023-02-18T16:23:45.454Z,6.05
2023-02-18T16:26:21.674Z,13.45
2023-02-18T16:28:51.749Z,6.57
2023-02-18T16:31:18.550Z,4.43
2023-02-18T16:33:45.159Z,6.18
2023-02-18T16:36:16.602Z,3.65
2023-02-18T16:38:45.481Z,5.47
2023-02-18T16:41:14.502Z,2.42
2023-02-18T16:43:42.033Z,3.53
2023-02-18T16:46:21.360Z,4.70
2023-02-18T16:48:55.056Z,3.05
2023-02-18T16:51:24.123Z,3.88
2023-02-18T16:53:51.252Z,2.58
2023-02-18T16:56:21.580Z,4.80
2023-02-18T16:58:48.365Z,4.45
2023-02-18T17:01:23.314Z,5.80
2023-02-18T17:03:50.298Z,5.72
2023-02-18T17:06:17.066Z,4.28
2023-02-18T17:08:44.085Z,5.95
2023-02-18T17:11:23.845Z,5.53
2023-02-18T17:13:50.670Z,5.15
2023-02-18T17:16:17.885Z,5.72
2023-02-18T17:18:45.374Z,5.38
2023-02-18T17:21:17.935Z,4.85
2023-02-18T17:23:45.085Z,4.80
2023-02-18T17:26:24.700Z,4.47
2023-02-18T17:28:52.656Z,4.15
2023-02-18T17:31:32.855Z,3.70
2023-02-18T17:34:06.778Z,3.40
2023-02-18T17:36:34.015Z,3.15
2023-02-18T17:39:02.758Z,3.63
2023-02-18T17:41:29.525Z,4.38
2023-02-18T17:43:56.124Z,3.97
2023-02-18T17:46:22.756Z,3.75
2023-02-18T17:48:49.417Z,3.25
2023-02-18T17:51:27.900Z,4.20
2023-02-18T17:53:54.655Z,4.57
2023-02-18T17:56:21.846Z,4.05
2023-02-18T17:58:49.032Z,3.90
2023-02-18T18:01:15.988Z,5.00
2023-02-18T18:03:42.761Z,3.80
2023-02-18T18:06:19.911Z,3.80
2023-02-18T18:08:47.557Z,3.80
2023-02-18T18:11:19.057Z,5.57
2023-02-18T18:13:46.600Z,20.92
2023-02-18T18:16:15.455Z,5.68
2023-02-18T18:18:42.283Z,6.53
2023-02-18T18:21:23.209Z,6.55
2023-02-18T18:23:51.041Z,3.25
2023-02-18T18:26:17.752Z,4.20
2023-02-18T18:28:44.470Z,6.80
2023-02-18T18:31:18.769Z,4.20
2023-02-18T18:33:50.485Z,5.63
2023-02-18T18:36:19.784Z,7.60
2023-02-18T18:38:46.970Z,6.10
2023-02-18T18:41:19.550Z,5.15
2023-02-18T18:43:46.537Z,6.22
2023-02-18T18:46:13.829Z,4.07
2023-02-18T18:48:40.368Z,3.95
2023-02-18T18:51:07.234Z,5.22
2023-02-18T18:53:35.558Z,5.93
2023-02-18T18:56:05.586Z,4.47
2023-02-18T18:58:32.566Z,8.20
2023-02-18T19:01:02.008Z,5.50
2023-02-18T19:03:29.303Z,5.38
2023-02-18T19:05:57.124Z,5.38
2023-02-18T19:08:24.243Z,5.03
2023-02-18T19:10:54.147Z,5.40
2023-02-18T19:13:23.724Z,7.15
2023-02-18T19:15:53.452Z,5.63
2023-02-18T19:18:21.887Z,4.35
2023-02-18T19:20:48.744Z,7.93
2023-02-18T19:23:15.501Z,6.63
2023-02-18T19:25:42.392Z,5.95
2023-02-18T19:28:13.790Z,5.50
2023-02-18T19:30:44.357Z,6.35
2023-02-18T19:33:13.581Z,6.45
2023-02-18T19:35:41.518Z,4.55
2023-02-18T19:38:12.757Z,4.70
2023-02-18T19:40:40.109Z,4.10
2023-02-18T19:43:07.393Z,3.95
2023-02-18T19:45:41.134Z,4.78
2023-02-18T19:48:11.371Z,5.38
2023-02-18T19:50:38.054Z,3.88
2023-02-18T19:53:04.708Z,5.45
2023-02-18T19:55:31.314Z,4.82
2023-02-18T19:57:57.913Z,7.95
2023-02-18T20:00:24.477Z,3.50
2023-02-18T20:02:51.214Z,5.15
2023-02-18T20:05:19.096Z,5.70
2023-02-18T20:07:46.858Z,5.25
2023-02-18T20:10:20.264Z,8.13
2023-02-18T20:12:52.161Z,6.90
2023-02-18T20:15:19.108Z,4.65
2023-02-18T20:17:45.769Z,4.95
2023-02-18T20:20:12.495Z,3.80
2023-02-18T20:22:39.048Z,6.00
2023-02-18T20:25:06.096Z,3.53
2023-02-18T20:27:33.540Z,4.57
2023-02-18T20:30:00.291Z,4.13
2023-02-18T20:32:27.004Z,4.45
2023-02-18T20:34:53.886Z,6.70
2023-02-18T20:37:20.453Z,3.45
2023-02-18T20:39:47.333Z,4.78
2023-02-18T20:42:16.637Z,4.85
2023-02-18T20:44:44.613Z,5.28
2023-02-18T20:47:13.663Z,5.10
2023-02-18T20:49:41.818Z,5.05
2023-02-18T20:52:09.358Z,5.18
2023-02-18T20:54:36.310Z,4.18
2023-02-18T20:57:15.211Z,4.65
2023-02-18T20:59:42.000Z,4.65
2023-02-18T21:02:08.712Z,3.45
2023-02-18T21:04:50.330Z,3.22
2023-02-18T21:07:16.948Z,4.57
2023-02-18T21:09:43.503Z,3.42
2023-02-18T21:12:11.121Z,2.42
2023-02-18T21:14:37.649Z,3.70
2023-02-18T21:17:04.273Z,3.30
2023-02-18T21:19:30.941Z,2.63
2023-02-18T21:21:57.514Z,3.05
2023-02-18T21:24:27.654Z,4.30
2023-02-18T21:26:54.274Z,2.72
2023-02-18T21:29:20.881Z,3.10
2023-02-18T21:31:47.509Z,8.95
2023-02-18T21:34:15.246Z,3.72
2023-02-18T21:36:43.247Z,2.10
2023-02-18T21:39:10.883Z,2.58
2023-02-18T21:41:40.489Z,2.67
2023-02-18T21:44:07.800Z,2.90
2023-02-18T21:46:36.666Z,3.35
2023-02-18T21:49:09.929Z,2.53
2023-02-18T21:51:57.387Z,2.22
2023-02-18T21:54:33.904Z,4.43
2023-02-18T21:57:04.064Z,2.38
2023-02-18T21:59:32.355Z,2.58
2023-02-18T22:02:02.747Z,2.20
2023-02-18T22:04:31.343Z,2.17
2023-02-18T22:06:58.512Z,1.42
2023-02-18T22:09:25.572Z,2.28
2023-02-18T22:11:52.255Z,5.13
2023-02-18T22:14:18.991Z,2.75
2023-02-18T22:16:45.637Z,2.08
2023-02-18T22:19:13.223Z,2.42
2023-02-18T22:21:40.870Z,3.88
2023-02-18T22:24:08.373Z,2.42
2023-02-18T22:26:34.949Z,2.17
2023-02-18T22:29:01.737Z,1.30
2023-02-18T22:31:30.111Z,1.90
2023-02-18T22:34:00.889Z,2.53
2023-02-18T22:36:29.304Z,6.45
2023-02-18T22:38:57.384Z,1.85
2023-02-18T22:41:25.869Z,1.60
2023-02-18T22:43:56.765Z,1.85
2023-02-18T22:46:24.207Z,2.97
2023-02-18T22:48:50.968Z,1.83
2023-02-18T22:51:19.279Z,2.28
2023-02-18T22:53:46.419Z,2.88
2023-02-18T22:56:15.632Z,1.17
2023-02-18T22:58:43.375Z,1.63
2023-02-18T23:01:23.819Z,2.17
2023-02-18T23:03:51.797Z,2.92
2023-02-18T23:06:20.103Z,1.98
2023-02-18T23:08:47.388Z,3.95
2023-02-18T23:11:19.914Z,2.28
2023-02-18T23:14:07.343Z,2.28
2023-02-18T23:16:55.108Z,2.38
2023-02-18T23:19:22.033Z,2.47
2023-02-18T23:21:48.572Z,1.52
2023-02-18T23:24:15.618Z,2.28
2023-02-18T23:26:42.811Z,4.35
2023-02-18T23:29:09.457Z,6.25
2023-02-18T23:31:38.978Z,3.47
2023-02-18T23:34:07.406Z,1.83
2023-02-18T23:36:35.654Z,1.90
2023-02-18T23:39:05.101Z,1.92
2023-02-18T23:41:31.786Z,2.35
2023-02-18T23:43:58.382Z,3.17
2023-02-18T23:46:26.900Z,2.58
2023-02-18T23:48:53.697Z,3.08
2023-02-18T23:51:23.251Z,2.70
2023-02-18T23:53:50.548Z,2.17
2023-02-18T23:56:19.862Z,1.95
2023-02-18T23:58:56.931Z,4.30
